createdAt,value
2023-05-15T00:01:15.671Z,84.42
2023-05-15T00:04:21.660Z,84.34
2023-05-15T00:07:28.572Z,85.05
2023-05-15T00:10:34.457Z,86.02
2023-05-15T00:13:46.249Z,85.94
2023-05-15T00:16:52.570Z,86.17
2023-05-15T00:20:01.856Z,86.31
2023-05-15T00:23:07.854Z,86.08
2023-05-15T00:26:16.010Z,86.44
2023-05-15T00:29:24.481Z,86.91
2023-05-15T00:32:31.265Z,86.98
2023-05-15T00:35:37.298Z,87.09
2023-05-15T00:38:48.392Z,86.32
2023-05-15T00:41:59.048Z,87.05
2023-05-15T00:45:14.421Z,87.10
2023-05-15T00:48:22.937Z,87.34
2023-05-15T00:51:31.588Z,87.05
2023-05-15T00:54:37.791Z,87.13
2023-05-15T00:57:47.339Z,87.26
2023-05-15T01:00:57.404Z,87.35
2023-05-15T01:04:06.864Z,87.36
2023-05-15T01:07:13.171Z,87.21
2023-05-15T01:10:24.417Z,87.54
2023-05-15T01:13:32.068Z,87.17
2023-05-15T01:16:41.871Z,87.14
2023-05-15T01:19:57.362Z,87.59
2023-05-15T01:23:18.705Z,87.72
2023-05-15T01:27:04.804Z,87.34
2023-05-15T01:30:25.420Z,86.76
2023-05-15T01:33:39.306Z,86.86
2023-05-15T01:36:56.906Z,87.10
2023-05-15T01:40:09.691Z,87.54
2023-05-15T01:43:25.346Z,87.73
2023-05-15T01:46:48.214Z,87.29
2023-05-15T01:50:00.542Z,87.95
2023-05-15T01:53:12.567Z,87.86
2023-05-15T01:56:22.351Z,87.77
2023-05-15T01:59:42.079Z,88.75
2023-05-15T02:02:53.736Z,87.99
2023-05-15T02:06:00.525Z,88.85
2023-05-15T02:09:08.015Z,88.92
2023-05-15T02:12:16.512Z,88.94
2023-05-15T02:15:25.156Z,89.11
2023-05-15T02:18:34.883Z,89.27
2023-05-15T02:21:41.197Z,89.85
2023-05-15T02:24:48.467Z,89.79
2023-05-15T02:28:04.110Z,90.04
2023-05-15T02:31:24.749Z,90.74
2023-05-15T02:34:49.004Z,90.74
2023-05-15T02:38:03.690Z,90.22
2023-05-15T02:41:12.973Z,90.11
2023-05-15T02:44:22.829Z,90.20
2023-05-15T02:47:35.512Z,90.12
2023-05-15T02:50:45.321Z,90.86
2023-05-15T02:53:52.476Z,91.08
2023-05-15T02:57:01.818Z,91.26
2023-05-15T03:00:12.101Z,91.75
2023-05-15T03:03:25.021Z,92.19
2023-05-15T03:06:33.642Z,91.54
2023-05-15T03:09:40.557Z,91.93
2023-05-15T03:12:46.578Z,91.74
2023-05-15T03:15:53.454Z,92.34
2023-05-15T03:18:59.418Z,91.34
2023-05-15T03:22:09.475Z,91.75
2023-05-15T03:25:16.109Z,91.92
2023-05-15T03:28:22.820Z,91.54
2023-05-15T03:31:28.867Z,91.72
2023-05-15T03:34:35.865Z,92.20
2023-05-15T03:37:44.520Z,91.44
2023-05-15T03:40:51.382Z,91.66
2023-05-15T03:43:57.650Z,91.52
2023-05-15T03:47:04.652Z,91.51
2023-05-15T03:50:13.026Z,92.28
2023-05-15T03:53:22.557Z,92.03
2023-05-15T03:56:28.579Z,91.99
2023-05-15T03:59:35.436Z,92.04
2023-05-15T04:02:42.711Z,92.14
2023-05-15T04:05:50.515Z,92.02
2023-05-15T04:08:59.055Z,91.99
2023-05-15T04:12:06.269Z,91.94
2023-05-15T04:15:21.842Z,91.91
2023-05-15T04:18:28.737Z,92.03
2023-05-15T04:21:34.701Z,92.32
2023-05-15T04:24:44.237Z,92.57
2023-05-15T04:27:50.406Z,92.55
2023-05-15T04:30:58.959Z,92.40
2023-05-15T04:34:05.457Z,92.27
2023-05-15T04:37:12.427Z,92.04
2023-05-15T04:40:21.533Z,92.16
2023-05-15T04:43:28.344Z,91.92
2023-05-15T04:46:37.729Z,91.80
2023-05-15T04:49:45.725Z,91.23
2023-05-15T04:52:51.619Z,90.75
2023-05-15T04:56:01.093Z,90.37
2023-05-15T04:59:07.106Z,90.31
2023-05-15T05:02:14.339Z,90.81
2023-05-15T05:05:20.961Z,89.80
2023-05-15T05:08:27.702Z,89.54
2023-05-15T05:11:39.550Z,89.40
2023-05-15T05:14:48.402Z,88.91
2023-05-15T05:17:54.556Z,88.99
2023-05-15T05:21:04.329Z,89.13
2023-05-15T05:24:12.535Z,89.20
2023-05-15T05:27:22.280Z,89.07
2023-05-15T05:30:28.228Z,89.41
2023-05-15T05:33:36.724Z,89.35
2023-05-15T05:36:42.634Z,88.55
2023-05-15T05:39:55.452Z,89.30
2023-05-15T05:43:11.326Z,89.45
2023-05-15T05:46:18.159Z,88.81
2023-05-15T05:49:24.416Z,89.23
2023-05-15T05:52:32.794Z,88.98
2023-05-15T05:55:38.893Z,89.36
2023-05-15T05:58:48.578Z,90.03
2023-05-15T06:01:54.634Z,89.59
2023-05-15T06:05:01.740Z,89.73
2023-05-15T06:08:08.393Z,90.37
2023-05-15T06:11:15.091Z,90.43
2023-05-15T06:14:23.616Z,90.95
2023-05-15T06:17:30.308Z,90.97
2023-05-15T06:20:36.670Z,91.10
2023-05-15T06:23:43.325Z,90.81
2023-05-15T06:26:50.422Z,91.87
2023-05-15T06:30:05.022Z,91.47
2023-05-15T06:33:10.970Z,91.28
2023-05-15T06:36:17.717Z,90.40
2023-05-15T06:39:26.982Z,89.55
2023-05-15T06:42:33.823Z,87.76
2023-05-15T06:45:43.110Z,88.65
2023-05-15T06:48:51.335Z,88.39
2023-05-15T06:51:59.288Z,88.10
2023-05-15T06:55:05.905Z,88.65
2023-05-15T06:58:12.029Z,90.08
2023-05-15T07:01:21.482Z,91.01
2023-05-15T07:04:27.682Z,90.41
2023-05-15T07:07:34.549Z,89.09
2023-05-15T07:10:40.433Z,88.62
2023-05-15T07:13:47.400Z,88.17
2023-05-15T07:16:56.293Z,87.91
2023-05-15T07:20:17.121Z,88.09
2023-05-15T07:23:26.780Z,88.33
2023-05-15T07:26:40.995Z,88.70
2023-05-15T07:29:52.791Z,88.98
2023-05-15T07:33:02.188Z,87.62
2023-05-15T07:36:11.719Z,89.66
2023-05-15T07:39:22.739Z,90.99
2023-05-15T07:42:29.388Z,90.97
2023-05-15T07:45:36.250Z,91.35
2023-05-15T07:48:44.953Z,89.52
2023-05-15T07:51:52.081Z,89.25
2023-05-15T07:54:59.013Z,89.77
2023-05-15T07:58:06.722Z,90.50
2023-05-15T08:01:20.688Z,89.92
2023-05-15T08:04:30.011Z,89.91
2023-05-15T08:07:38.235Z,89.17
2023-05-15T08:10:45.035Z,90.06
2023-05-15T08:13:51.093Z,90.39
2023-05-15T08:16:59.958Z,89.45
2023-05-15T08:20:29.269Z,88.57
2023-05-15T08:23:39.516Z,90.09
2023-05-15T08:26:45.677Z,90.82
2023-05-15T08:29:53.174Z,90.52
2023-05-15T08:33:00.382Z,89.28
2023-05-15T08:36:11.529Z,89.17
2023-05-15T08:39:22.555Z,89.95
2023-05-15T08:42:43.290Z,89.25
2023-05-15T08:45:58.779Z,89.39
2023-05-15T08:49:27.069Z,88.74
2023-05-15T08:52:37.589Z,86.92
2023-05-15T08:55:45.499Z,85.56
2023-05-15T08:58:52.705Z,85.15
2023-05-15T09:02:00.475Z,83.78
2023-05-15T09:05:13.428Z,83.08
2023-05-15T09:08:25.981Z,82.11
2023-05-15T09:11:36.599Z,81.47
2023-05-15T09:14:44.263Z,83.23
2023-05-15T09:17:50.545Z,83.68
2023-05-15T09:20:57.352Z,83.63
2023-05-15T09:24:28.479Z,83.92
2023-05-15T09:27:49.048Z,83.05
2023-05-15T09:31:05.016Z,83.56
2023-05-15T09:34:15.011Z,84.77
2023-05-15T09:37:34.298Z,83.63
2023-05-15T09:40:44.007Z,82.96
2023-05-15T09:43:49.853Z,83.45
2023-05-15T09:46:57.329Z,83.63
2023-05-15T09:50:03.384Z,83.88
2023-05-15T09:53:14.191Z,83.91
2023-05-15T09:56:23.219Z,82.47
2023-05-15T09:59:30.115Z,82.16
2023-05-15T10:02:36.625Z,81.09
2023-05-15T10:05:46.646Z,80.16
2023-05-15T10:08:56.261Z,79.71
2023-05-15T10:12:09.025Z,78.57
2023-05-15T10:15:16.954Z,78.68
2023-05-15T10:18:30.744Z,79.23
2023-05-15T10:21:40.130Z,78.74
2023-05-15T10:24:52.144Z,79.49
2023-05-15T10:28:02.934Z,80.82
2023-05-15T10:31:14.007Z,81.13
2023-05-15T10:34:21.747Z,82.04
2023-05-15T10:37:30.645Z,81.30
2023-05-15T10:40:41.309Z,81.12
2023-05-15T10:43:53.329Z,80.88
2023-05-15T10:46:59.671Z,82.08
2023-05-15T10:50:08.449Z,80.46
2023-05-15T10:53:14.673Z,80.10
2023-05-15T10:56:21.765Z,79.24
2023-05-15T10:59:37.936Z,79.88
2023-05-15T11:02:44.796Z,76.67
2023-05-15T11:06:13.169Z,79.37
2023-05-15T11:09:41.806Z,80.33
2023-05-15T11:13:05.613Z,78.04
2023-05-15T11:16:16.587Z,80.60
2023-05-15T11:19:35.653Z,81.00
2023-05-15T11:22:42.343Z,81.02
2023-05-15T11:25:58.862Z,80.00
2023-05-15T11:29:23.364Z,77.27
2023-05-15T11:32:51.320Z,77.36
2023-05-15T11:36:03.209Z,76.17
2023-05-15T11:39:14.919Z,75.86
2023-05-15T11:42:22.721Z,74.43
2023-05-15T11:45:28.992Z,76.16
2023-05-15T11:48:44.581Z,75.70
2023-05-15T11:51:54.069Z,75.47
2023-05-15T11:55:03.233Z,74.82
2023-05-15T11:58:16.562Z,76.63
2023-05-15T12:01:23.332Z,76.70
2023-05-15T12:04:32.212Z,72.53
2023-05-15T12:07:42.168Z,73.96
2023-05-15T12:10:52.262Z,75.97
2023-05-15T12:13:59.821Z,77.03
2023-05-15T12:17:07.039Z,77.14
2023-05-15T12:20:21.122Z,74.58
2023-05-15T12:23:29.332Z,72.83
2023-05-15T12:26:39.694Z,74.55
2023-05-15T12:29:46.823Z,72.11
2023-05-15T12:32:54.712Z,71.19
2023-05-15T12:36:03.343Z,72.87
2023-05-15T12:39:11.476Z,71.28
2023-05-15T12:42:20.766Z,71.05
2023-05-15T12:45:29.112Z,68.99
2023-05-15T12:48:36.360Z,70.00
2023-05-15T12:51:48.813Z,69.14
2023-05-15T12:54:58.624Z,69.90
2023-05-15T12:58:11.893Z,69.32
2023-05-15T13:01:18.934Z,70.12
2023-05-15T13:04:26.354Z,69.61
2023-05-15T13:07:35.859Z,67.61
2023-05-15T13:10:42.821Z,66.90
2023-05-15T13:13:52.338Z,64.44
2023-05-15T13:17:05.119Z,63.57
2023-05-15T13:20:12.617Z,61.68
2023-05-15T13:23:25.276Z,63.21
2023-05-15T13:26:31.153Z,62.62
2023-05-15T13:29:38.540Z,61.65
2023-05-15T13:32:44.840Z,61.50
2023-05-15T13:35:52.137Z,61.22
2023-05-15T13:39:06.375Z,60.26
2023-05-15T13:42:13.181Z,61.04
2023-05-15T13:45:20.360Z,59.60
2023-05-15T13:48:27.283Z,59.91
2023-05-15T13:51:33.390Z,60.88
2023-05-15T13:54:42.908Z,59.32
2023-05-15T13:57:48.997Z,59.23
2023-05-15T14:00:55.941Z,58.67
2023-05-15T14:04:05.092Z,56.98
2023-05-15T14:07:11.895Z,57.41
2023-05-15T14:10:24.347Z,58.06
2023-05-15T14:13:32.006Z,58.06
2023-05-15T14:16:38.038Z,57.62
2023-05-15T14:19:45.101Z,57.04
2023-05-15T14:22:54.132Z,56.79
2023-05-15T14:26:05.564Z,58.35
2023-05-15T14:29:11.589Z,58.21
2023-05-15T14:32:19.274Z,58.55
2023-05-15T14:35:32.237Z,57.20
2023-05-15T14:38:45.841Z,57.49
2023-05-15T14:41:54.520Z,58.27
2023-05-15T14:45:14.983Z,58.89
2023-05-15T14:48:27.422Z,57.51
2023-05-15T14:51:41.741Z,56.91
2023-05-15T14:54:56.930Z,56.17
2023-05-15T14:58:11.632Z,57.29
2023-05-15T15:01:22.278Z,57.62
2023-05-15T15:04:30.736Z,57.73
2023-05-15T15:08:05.126Z,57.58
2023-05-15T15:11:12.588Z,55.96
2023-05-15T15:14:24.437Z,54.32
2023-05-15T15:17:31.269Z,54.36
2023-05-15T15:20:37.460Z,54.19
2023-05-15T15:23:45.031Z,55.28
2023-05-15T15:26:53.256Z,54.20
2023-05-15T15:30:04.264Z,53.31
2023-05-15T15:33:10.339Z,53.86
2023-05-15T15:36:17.308Z,52.94
2023-05-15T15:39:23.717Z,55.18
2023-05-15T15:42:31.715Z,55.50
2023-05-15T15:45:40.419Z,55.54
2023-05-15T15:48:47.156Z,55.65
2023-05-15T15:51:53.153Z,55.57
2023-05-15T15:54:59.959Z,55.45
2023-05-15T15:58:06.583Z,55.70
2023-05-15T16:01:16.229Z,57.14
2023-05-15T16:04:23.197Z,57.10
2023-05-15T16:07:30.463Z,58.24
2023-05-15T16:10:39.363Z,59.07
2023-05-15T16:13:46.497Z,59.08
2023-05-15T16:16:55.304Z,58.99
2023-05-15T16:20:02.177Z,59.66
2023-05-15T16:23:09.647Z,60.07
2023-05-15T16:26:16.404Z,59.54
2023-05-15T16:29:22.932Z,58.31
2023-05-15T16:32:34.232Z,57.70
2023-05-15T16:35:40.262Z,59.01
2023-05-15T16:38:47.403Z,59.29
2023-05-15T16:41:53.416Z,60.63
2023-05-15T16:45:00.236Z,60.79
2023-05-15T16:48:09.630Z,61.29
2023-05-15T16:51:17.184Z,62.43
2023-05-15T16:54:23.183Z,62.40
2023-05-15T16:57:29.924Z,62.54
2023-05-15T17:00:35.836Z,62.64
2023-05-15T17:03:45.597Z,63.16
2023-05-15T17:06:51.838Z,62.50
2023-05-15T17:09:58.738Z,63.10
2023-05-15T17:13:04.941Z,63.60
2023-05-15T17:16:11.791Z,63.18
2023-05-15T17:19:20.507Z,64.00
2023-05-15T17:22:27.373Z,63.47
2023-05-15T17:25:36.689Z,63.43
2023-05-15T17:28:43.742Z,62.96
2023-05-15T17:31:50.281Z,63.92
2023-05-15T17:34:59.713Z,64.21
2023-05-15T17:38:05.716Z,64.75
2023-05-15T17:41:12.453Z,65.42
2023-05-15T17:44:18.394Z,65.50
2023-05-15T17:47:25.189Z,66.34
2023-05-15T17:50:38.154Z,66.58
2023-05-15T17:53:45.049Z,65.73
2023-05-15T17:56:53.821Z,66.41
2023-05-15T18:00:00.776Z,66.80
2023-05-15T18:03:18.129Z,66.86
2023-05-15T18:06:28.493Z,66.67
2023-05-15T18:09:34.463Z,67.15
2023-05-15T18:12:41.351Z,66.32
2023-05-15T18:15:47.481Z,66.09
2023-05-15T18:18:55.354Z,66.42
2023-05-15T18:22:04.404Z,66.52
2023-05-15T18:25:11.927Z,66.98
2023-05-15T18:28:21.014Z,68.25
2023-05-15T18:31:27.948Z,68.79
2023-05-15T18:34:34.702Z,69.14
2023-05-15T18:37:44.584Z,70.58
2023-05-15T18:40:51.131Z,70.90
2023-05-15T18:43:58.216Z,71.19
2023-05-15T18:47:04.745Z,71.26
2023-05-15T18:50:14.443Z,71.59
2023-05-15T18:53:23.386Z,71.61
2023-05-15T18:56:30.112Z,71.83
2023-05-15T18:59:38.851Z,71.55
2023-05-15T19:02:45.907Z,71.29
2023-05-15T19:05:52.472Z,71.97
2023-05-15T19:09:01.918Z,71.84
2023-05-15T19:12:08.969Z,71.89
2023-05-15T19:15:18.395Z,72.15
2023-05-15T19:18:24.453Z,72.28
2023-05-15T19:21:55.156Z,72.58
2023-05-15T19:25:03.867Z,72.82
2023-05-15T19:28:11.202Z,73.23
2023-05-15T19:31:30.891Z,74.34
2023-05-15T19:34:38.522Z,74.78
2023-05-15T19:37:45.817Z,74.63
2023-05-15T19:40:55.220Z,74.54
2023-05-15T19:44:02.293Z,74.70
2023-05-15T19:47:12.074Z,75.37
2023-05-15T19:50:22.714Z,75.58
2023-05-15T19:53:30.662Z,76.46
2023-05-15T19:56:41.345Z,76.61
2023-05-15T19:59:53.774Z,77.22
2023-05-15T20:03:00.990Z,77.23
2023-05-15T20:06:08.308Z,76.89
2023-05-15T20:09:20.408Z,77.04
2023-05-15T20:12:32.661Z,77.18
2023-05-15T20:15:40.203Z,77.28
2023-05-15T20:18:48.250Z,77.47
2023-05-15T20:22:07.407Z,77.56
2023-05-15T20:25:15.454Z,76.95
2023-05-15T20:28:44.329Z,77.15
2023-05-15T20:31:51.976Z,77.24
2023-05-15T20:34:58.732Z,77.68
2023-05-15T20:38:05.542Z,77.56
2023-05-15T20:41:11.540Z,77.68
2023-05-15T20:44:21.279Z,77.97
2023-05-15T20:47:27.256Z,78.51
2023-05-15T20:50:34.231Z,78.47
2023-05-15T20:53:46.246Z,78.64
2023-05-15T20:56:53.050Z,79.23
2023-05-15T21:00:01.525Z,79.11
2023-05-15T21:03:09.712Z,79.08
2023-05-15T21:06:17.677Z,79.60
2023-05-15T21:09:24.552Z,79.22
2023-05-15T21:12:34.914Z,79.27
2023-05-15T21:15:44.628Z,79.29
2023-05-15T21:18:50.618Z,79.40
2023-05-15T21:21:57.498Z,79.25
2023-05-15T21:25:04.875Z,79.30
2023-05-15T21:28:11.756Z,79.87
2023-05-15T21:31:20.339Z,80.05
2023-05-15T21:34:27.071Z,80.84
2023-05-15T21:37:34.499Z,81.27
2023-05-15T21:40:41.297Z,81.14
2023-05-15T21:43:52.592Z,80.89
2023-05-15T21:47:02.059Z,81.30
2023-05-15T21:50:09.980Z,81.71
2023-05-15T21:53:17.480Z,81.90
2023-05-15T21:56:26.597Z,81.68
2023-05-15T21:59:35.322Z,81.73
2023-05-15T22:02:43.951Z,81.96
2023-05-15T22:05:51.954Z,82.16
2023-05-15T22:08:57.932Z,82.37
2023-05-15T22:12:04.964Z,82.41
2023-05-15T22:15:16.489Z,82.02
2023-05-15T22:18:26.476Z,81.94
2023-05-15T22:21:34.492Z,82.15
2023-05-15T22:24:41.186Z,82.34
2023-05-15T22:27:47.082Z,82.01
2023-05-15T22:30:59.823Z,82.05
2023-05-15T22:34:15.132Z,82.17
2023-05-15T22:37:22.142Z,82.07
2023-05-15T22:40:28.487Z,82.28
2023-05-15T22:43:35.498Z,81.38
2023-05-15T22:46:41.414Z,81.19
2023-05-15T22:49:50.899Z,81.40
2023-05-15T22:52:57.493Z,81.70
2023-05-15T22:56:04.140Z,81.43
2023-05-15T22:59:10.065Z,81.08
2023-05-15T23:02:16.804Z,81.40
2023-05-15T23:05:26.292Z,81.41
2023-05-15T23:08:37.404Z,80.66
2023-05-15T23:11:43.400Z,80.79
2023-05-15T23:14:53.119Z,81.03
2023-05-15T23:18:05.147Z,80.94
2023-05-15T23:21:14.488Z,80.73
2023-05-15T23:24:20.308Z,80.40
2023-05-15T23:27:33.468Z,80.74
2023-05-15T23:30:48.645Z,80.27
2023-05-15T23:33:55.467Z,80.22
2023-05-15T23:37:05.357Z,81.04
2023-05-15T23:40:13.648Z,81.60
2023-05-15T23:43:19.637Z,81.38
2023-05-15T23:46:26.470Z,82.64
2023-05-15T23:49:33.801Z,82.72
2023-05-15T23:52:46.519Z,82.88
2023-05-15T23:55:52.500Z,82.83
2023-05-15T23:59:01.744Z,83.14
